Main page
METAR-TAF:

Airports :

Asunción, Paraguay

Silvio Pettirossi International Airport

latitude: 25-16S, longitude: 057-38W, elevation: 101 m

Current weather observation

The report was made 48 minutes ago, at 17:00 UTC
Wind 5 kt from variable directions
Temperature 19°C
Humidity 46%
Pressure 1021 hPa
Visibility 10 km or more
no clouds below 1500 m and no cumulonimbus

METAR: SGAS 291700Z VRB05KT CAVOK 19/07 Q1021

Time: 13:48 (17:48 UTC)

Forecast

The report was made 17 minutes ago, at 17:31 UTC
Forecast valid from 29 at 18 UTC to 30 at 18 UTC
Wind 5 kt from variable directions
Visibility 10 km or more
no clouds below 1500 m and no cumulonimbus
From 30 at 0100 UTC
Wind 8 kt from the South
Visibility 10 km or more
no clouds below 1500 m and no cumulonimbus
Becoming
from 30 at 10 UTC to 30 at 12 UTC
Wind 10 kt from the East/Southeast

TAF: SGAS 291731Z 2918/3018 VRB05KT CAVOK TX21/3018Z TN07/3010Z FM300100 18008KT CAVOK BECMG 3010/3012 12010KT

METAR-TAF

Weather observations and forecasts of more than 4000 airports (METAR and TAF reports).

The available stations are represented by yellow and red dots on the map.

Hover mouse over dot to see the name of the station.

Then click to see weather observations and forecasts.

To change the map : click on the green buttons with a black cross to zoom in, on the green button with a dash to zoom out, or on the green arrows for adjacent maps.


METAR-TAF: